sensor_id;sensor_type;location;lat;lon;timestamp;P1;durP1;ratioP1;P2;durP2;ratioP2
57337;SDS011;43173;50.980;18.204;2023-03-04T00:00:24;63.70;;;24.60;;
57337;SDS011;43173;50.980;18.204;2023-03-04T00:02:49;74.30;;;28.30;;
57337;SDS011;43173;50.980;18.204;2023-03-04T00:05:16;69.00;;;27.50;;
57337;SDS011;43173;50.980;18.204;2023-03-04T00:07:42;51.30;;;21.80;;
57337;SDS011;43173;50.980;18.204;2023-03-04T00:10:08;44.20;;;19.80;;
57337;SDS011;43173;50.980;18.204;2023-03-04T00:12:34;40.20;;;16.90;;
57337;SDS011;43173;50.980;18.204;2023-03-04T00:15:00;52.50;;;20.90;;
57337;SDS011;43173;50.980;18.204;2023-03-04T00:17:26;37.80;;;17.20;;
57337;SDS011;43173;50.980;18.204;2023-03-04T00:19:54;49.50;;;21.80;;
57337;SDS011;43173;50.980;18.204;2023-03-04T00:22:20;39.30;;;15.80;;
57337;SDS011;43173;50.980;18.204;2023-03-04T00:24:46;57.40;;;23.30;;
57337;SDS011;43173;50.980;18.204;2023-03-04T00:27:11;72.30;;;26.90;;
57337;SDS011;43173;50.980;18.204;2023-03-04T00:29:37;37.40;;;16.20;;
57337;SDS011;43173;50.980;18.204;2023-03-04T00:32:03;69.80;;;23.90;;
57337;SDS011;43173;50.980;18.204;2023-03-04T00:34:29;57.70;;;22.70;;
57337;SDS011;43173;50.980;18.204;2023-03-04T00:36:54;58.00;;;23.10;;
57337;SDS011;43173;50.980;18.204;2023-03-04T00:39:26;57.30;;;20.70;;
57337;SDS011;43173;50.980;18.204;2023-03-04T00:41:53;52.50;;;19.70;;
57337;SDS011;43173;50.980;18.204;2023-03-04T00:44:18;38.20;;;17.40;;
57337;SDS011;43173;50.980;18.204;2023-03-04T00:46:44;72.40;;;27.60;;
57337;SDS011;43173;50.980;18.204;2023-03-04T00:49:10;52.50;;;19.90;;
57337;SDS011;43173;50.980;18.204;2023-03-04T00:51:36;49.70;;;18.00;;
57337;SDS011;43173;50.980;18.204;2023-03-04T00:54:02;71.00;;;25.80;;
57337;SDS011;43173;50.980;18.204;2023-03-04T00:56:27;61.70;;;24.60;;
57337;SDS011;43173;50.980;18.204;2023-03-04T00:58:53;60.20;;;22.00;;
57337;SDS011;43173;50.980;18.204;2023-03-04T01:01:19;42.60;;;17.10;;
57337;SDS011;43173;50.980;18.204;2023-03-04T01:03:45;52.40;;;19.10;;
57337;SDS011;43173;50.980;18.204;2023-03-04T01:06:11;70.70;;;26.90;;
57337;SDS011;43173;50.980;18.204;2023-03-04T01:08:37;60.70;;;22.00;;
57337;SDS011;43173;50.980;18.204;2023-03-04T01:11:04;61.30;;;22.60;;
57337;SDS011;43173;50.980;18.204;2023-03-04T01:13:30;80.40;;;28.50;;
57337;SDS011;43173;50.980;18.204;2023-03-04T01:15:56;67.20;;;23.50;;
57337;SDS011;43173;50.980;18.204;2023-03-04T01:18:22;91.60;;;27.70;;
57337;SDS011;43173;50.980;18.204;2023-03-04T01:20:48;66.60;;;23.10;;
57337;SDS011;43173;50.980;18.204;2023-03-04T01:23:14;77.50;;;27.50;;
57337;SDS011;43173;50.980;18.204;2023-03-04T01:25:40;64.70;;;26.00;;
57337;SDS011;43173;50.980;18.204;2023-03-04T01:28:06;60.70;;;23.20;;
57337;SDS011;43173;50.980;18.204;2023-03-04T01:30:31;64.60;;;24.00;;
57337;SDS011;43173;50.980;18.204;2023-03-04T01:32:57;57.50;;;19.10;;
57337;SDS011;43173;50.980;18.204;2023-03-04T01:35:23;75.20;;;27.70;;
57337;SDS011;43173;50.980;18.204;2023-03-04T01:37:48;67.40;;;26.10;;
57337;SDS011;43173;50.980;18.204;2023-03-04T01:40:14;66.50;;;26.00;;
57337;SDS011;43173;50.980;18.204;2023-03-04T01:42:40;63.40;;;23.60;;
57337;SDS011;43173;50.980;18.204;2023-03-04T01:45:06;68.00;;;26.00;;
57337;SDS011;43173;50.980;18.204;2023-03-04T01:47:35;43.90;;;16.30;;
57337;SDS011;43173;50.980;18.204;2023-03-04T01:50:02;52.80;;;20.30;;
57337;SDS011;43173;50.980;18.204;2023-03-04T01:52:31;71.80;;;26.10;;
57337;SDS011;43173;50.980;18.204;2023-03-04T01:54:57;44.20;;;17.30;;
57337;SDS011;43173;50.980;18.204;2023-03-04T01:57:23;51.70;;;21.80;;
57337;SDS011;43173;50.980;18.204;2023-03-04T02:02:49;30.60;;;15.70;;
57337;SDS011;43173;50.980;18.204;2023-03-04T02:05:17;50.20;;;20.30;;
57337;SDS011;43173;50.980;18.204;2023-03-04T02:07:43;38.00;;;14.00;;
57337;SDS011;43173;50.980;18.204;2023-03-04T02:10:10;58.00;;;20.00;;
57337;SDS011;43173;50.980;18.204;2023-03-04T02:12:36;49.40;;;18.50;;
57337;SDS011;43173;50.980;18.204;2023-03-04T02:15:03;62.00;;;25.60;;
57337;SDS011;43173;50.980;18.204;2023-03-04T02:17:30;39.80;;;16.20;;
57337;SDS011;43173;50.980;18.204;2023-03-04T02:22:34;37.40;;;16.00;;
57337;SDS011;43173;50.980;18.204;2023-03-04T02:25:06;47.80;;;19.80;;
57337;SDS011;43173;50.980;18.204;2023-03-04T02:27:36;61.60;;;23.40;;
57337;SDS011;43173;50.980;18.204;2023-03-04T02:30:01;45.40;;;18.50;;
57337;SDS011;43173;50.980;18.204;2023-03-04T02:32:27;39.00;;;16.20;;
57337;SDS011;43173;50.980;18.204;2023-03-04T02:34:53;36.50;;;12.20;;
57337;SDS011;43173;50.980;18.204;2023-03-04T02:37:20;42.20;;;18.60;;
57337;SDS011;43173;50.980;18.204;2023-03-04T02:39:46;51.00;;;20.70;;
57337;SDS011;43173;50.980;18.204;2023-03-04T02:42:13;53.30;;;22.00;;
57337;SDS011;43173;50.980;18.204;2023-03-04T02:44:40;50.00;;;22.80;;
57337;SDS011;43173;50.980;18.204;2023-03-04T02:47:13;48.80;;;20.50;;
57337;SDS011;43173;50.980;18.204;2023-03-04T02:49:42;42.00;;;16.20;;
57337;SDS011;43173;50.980;18.204;2023-03-04T02:52:09;33.80;;;16.20;;
57337;SDS011;43173;50.980;18.204;2023-03-04T02:54:38;37.50;;;15.20;;
57337;SDS011;43173;50.980;18.204;2023-03-04T02:57:05;37.60;;;16.70;;
57337;SDS011;43173;50.980;18.204;2023-03-04T02:59:34;17.60;;;9.30;;
57337;SDS011;43173;50.980;18.204;2023-03-04T03:02:00;41.80;;;17.80;;
57337;SDS011;43173;50.980;18.204;2023-03-04T03:04:26;41.00;;;18.50;;
57337;SDS011;43173;50.980;18.204;2023-03-04T03:06:52;26.10;;;13.00;;
57337;SDS011;43173;50.980;18.204;2023-03-04T03:09:18;44.30;;;20.80;;
57337;SDS011;43173;50.980;18.204;2023-03-04T03:11:44;22.80;;;9.80;;
57337;SDS011;43173;50.980;18.204;2023-03-04T03:14:10;27.80;;;12.90;;
57337;SDS011;43173;50.980;18.204;2023-03-04T03:16:36;39.30;;;16.20;;
57337;SDS011;43173;50.980;18.204;2023-03-04T03:19:02;41.90;;;19.20;;
57337;SDS011;43173;50.980;18.204;2023-03-04T03:21:27;44.20;;;19.10;;
57337;SDS011;43173;50.980;18.204;2023-03-04T03:23:53;23.70;;;9.40;;
57337;SDS011;43173;50.980;18.204;2023-03-04T03:26:19;29.80;;;11.80;;
57337;SDS011;43173;50.980;18.204;2023-03-04T03:28:45;36.50;;;17.10;;
57337;SDS011;43173;50.980;18.204;2023-03-04T03:31:11;18.40;;;9.30;;
57337;SDS011;43173;50.980;18.204;2023-03-04T03:33:37;35.70;;;14.40;;
57337;SDS011;43173;50.980;18.204;2023-03-04T03:36:03;29.60;;;13.10;;
57337;SDS011;43173;50.980;18.204;2023-03-04T03:38:29;35.30;;;17.00;;
57337;SDS011;43173;50.980;18.204;2023-03-04T03:40:56;30.70;;;15.00;;
57337;SDS011;43173;50.980;18.204;2023-03-04T03:43:22;41.80;;;19.70;;
57337;SDS011;43173;50.980;18.204;2023-03-04T03:45:47;36.50;;;16.30;;
57337;SDS011;43173;50.980;18.204;2023-03-04T03:48:13;43.00;;;20.00;;
57337;SDS011;43173;50.980;18.204;2023-03-04T03:50:39;41.70;;;17.80;;
57337;SDS011;43173;50.980;18.204;2023-03-04T03:53:05;47.40;;;21.20;;
57337;SDS011;43173;50.980;18.204;2023-03-04T03:55:31;32.90;;;16.10;;
57337;SDS011;43173;50.980;18.204;2023-03-04T03:57:56;41.70;;;19.10;;
57337;SDS011;43173;50.980;18.204;2023-03-04T04:00:22;26.40;;;13.00;;
57337;SDS011;43173;50.980;18.204;2023-03-04T04:02:48;43.30;;;19.30;;
57337;SDS011;43173;50.980;18.204;2023-03-04T04:05:14;41.60;;;20.20;;
57337;SDS011;43173;50.980;18.204;2023-03-04T04:07:40;39.40;;;17.20;;
57337;SDS011;43173;50.980;18.204;2023-03-04T04:10:06;26.20;;;11.40;;
57337;SDS011;43173;50.980;18.204;2023-03-04T04:12:32;37.30;;;16.70;;
57337;SDS011;43173;50.980;18.204;2023-03-04T04:14:58;37.50;;;16.40;;
57337;SDS011;43173;50.980;18.204;2023-03-04T04:17:24;26.30;;;13.70;;
57337;SDS011;43173;50.980;18.204;2023-03-04T04:19:50;33.00;;;14.60;;
57337;SDS011;43173;50.980;18.204;2023-03-04T04:22:16;29.10;;;12.10;;
57337;SDS011;43173;50.980;18.204;2023-03-04T04:24:43;25.50;;;14.10;;
57337;SDS011;43173;50.980;18.204;2023-03-04T04:27:09;31.50;;;14.60;;
57337;SDS011;43173;50.980;18.204;2023-03-04T04:29:35;29.30;;;14.90;;
57337;SDS011;43173;50.980;18.204;2023-03-04T04:32:02;34.40;;;14.90;;
57337;SDS011;43173;50.980;18.204;2023-03-04T04:34:28;30.50;;;15.70;;
57337;SDS011;43173;50.980;18.204;2023-03-04T04:36:54;42.40;;;20.90;;
57337;SDS011;43173;50.980;18.204;2023-03-04T04:39:20;46.70;;;23.70;;
57337;SDS011;43173;50.980;18.204;2023-03-04T04:41:45;34.20;;;15.80;;
57337;SDS011;43173;50.980;18.204;2023-03-04T04:44:12;42.10;;;23.00;;
57337;SDS011;43173;50.980;18.204;2023-03-04T04:46:38;32.50;;;14.90;;
57337;SDS011;43173;50.980;18.204;2023-03-04T04:49:04;50.30;;;24.80;;
57337;SDS011;43173;50.980;18.204;2023-03-04T04:51:31;40.80;;;18.10;;
57337;SDS011;43173;50.980;18.204;2023-03-04T04:53:59;43.10;;;22.80;;
57337;SDS011;43173;50.980;18.204;2023-03-04T04:56:25;39.50;;;20.00;;
57337;SDS011;43173;50.980;18.204;2023-03-04T04:58:52;28.70;;;14.30;;
57337;SDS011;43173;50.980;18.204;2023-03-04T05:01:19;28.80;;;15.30;;
57337;SDS011;43173;50.980;18.204;2023-03-04T05:03:45;36.90;;;19.50;;
57337;SDS011;43173;50.980;18.204;2023-03-04T05:06:11;31.40;;;16.60;;
57337;SDS011;43173;50.980;18.204;2023-03-04T05:08:42;25.20;;;12.30;;
57337;SDS011;43173;50.980;18.204;2023-03-04T05:11:08;25.00;;;12.80;;
57337;SDS011;43173;50.980;18.204;2023-03-04T05:13:34;34.70;;;18.40;;
57337;SDS011;43173;50.980;18.204;2023-03-04T05:16:00;19.50;;;9.90;;
57337;SDS011;43173;50.980;18.204;2023-03-04T05:18:26;35.10;;;16.80;;
57337;SDS011;43173;50.980;18.204;2023-03-04T05:20:52;31.50;;;14.80;;
57337;SDS011;43173;50.980;18.204;2023-03-04T05:23:19;28.50;;;14.70;;
57337;SDS011;43173;50.980;18.204;2023-03-04T05:25:45;24.00;;;12.10;;
57337;SDS011;43173;50.980;18.204;2023-03-04T05:28:11;19.10;;;10.10;;
57337;SDS011;43173;50.980;18.204;2023-03-04T05:30:37;28.10;;;12.50;;
57337;SDS011;43173;50.980;18.204;2023-03-04T05:33:04;32.00;;;15.90;;
57337;SDS011;43173;50.980;18.204;2023-03-04T05:35:31;26.70;;;13.80;;
57337;SDS011;43173;50.980;18.204;2023-03-04T05:37:57;24.00;;;12.60;;
57337;SDS011;43173;50.980;18.204;2023-03-04T05:40:22;35.70;;;17.40;;
57337;SDS011;43173;50.980;18.204;2023-03-04T05:42:50;23.40;;;10.70;;
57337;SDS011;43173;50.980;18.204;2023-03-04T05:45:15;27.50;;;14.50;;
57337;SDS011;43173;50.980;18.204;2023-03-04T05:47:42;14.80;;;8.70;;
57337;SDS011;43173;50.980;18.204;2023-03-04T05:50:08;29.00;;;13.60;;
57337;SDS011;43173;50.980;18.204;2023-03-04T05:52:34;35.70;;;17.50;;
57337;SDS011;43173;50.980;18.204;2023-03-04T05:55:00;23.30;;;10.60;;
57337;SDS011;43173;50.980;18.204;2023-03-04T05:57:26;36.00;;;17.00;;
57337;SDS011;43173;50.980;18.204;2023-03-04T05:59:53;34.30;;;16.20;;
57337;SDS011;43173;50.980;18.204;2023-03-04T06:02:19;34.90;;;15.30;;
57337;SDS011;43173;50.980;18.204;2023-03-04T06:04:44;33.40;;;16.70;;
57337;SDS011;43173;50.980;18.204;2023-03-04T06:07:10;24.60;;;11.90;;
57337;SDS011;43173;50.980;18.204;2023-03-04T06:09:36;46.60;;;20.80;;
57337;SDS011;43173;50.980;18.204;2023-03-04T06:12:02;26.40;;;12.40;;
57337;SDS011;43173;50.980;18.204;2023-03-04T06:14:27;31.00;;;13.40;;
57337;SDS011;43173;50.980;18.204;2023-03-04T06:16:53;31.40;;;12.80;;
57337;SDS011;43173;50.980;18.204;2023-03-04T06:19:19;40.10;;;21.50;;
57337;SDS011;43173;50.980;18.204;2023-03-04T06:21:44;41.00;;;19.60;;
57337;SDS011;43173;50.980;18.204;2023-03-04T06:24:11;27.30;;;13.50;;
57337;SDS011;43173;50.980;18.204;2023-03-04T06:26:37;39.30;;;20.40;;
57337;SDS011;43173;50.980;18.204;2023-03-04T06:29:03;38.30;;;17.70;;
57337;SDS011;43173;50.980;18.204;2023-03-04T06:31:29;29.50;;;14.90;;
57337;SDS011;43173;50.980;18.204;2023-03-04T06:33:55;31.60;;;15.00;;
57337;SDS011;43173;50.980;18.204;2023-03-04T06:36:21;26.40;;;13.90;;
57337;SDS011;43173;50.980;18.204;2023-03-04T06:38:47;41.20;;;19.90;;
57337;SDS011;43173;50.980;18.204;2023-03-04T06:41:12;27.70;;;14.00;;
57337;SDS011;43173;50.980;18.204;2023-03-04T06:43:38;31.30;;;13.20;;
57337;SDS011;43173;50.980;18.204;2023-03-04T06:46:05;24.10;;;12.00;;
57337;SDS011;43173;50.980;18.204;2023-03-04T06:48:31;42.70;;;23.10;;
57337;SDS011;43173;50.980;18.204;2023-03-04T06:50:57;40.10;;;18.80;;
57337;SDS011;43173;50.980;18.204;2023-03-04T06:53:22;22.80;;;12.10;;
57337;SDS011;43173;50.980;18.204;2023-03-04T06:55:48;24.90;;;12.40;;
57337;SDS011;43173;50.980;18.204;2023-03-04T06:58:14;24.70;;;12.20;;
57337;SDS011;43173;50.980;18.204;2023-03-04T07:00:43;31.40;;;15.80;;
57337;SDS011;43173;50.980;18.204;2023-03-04T07:03:12;31.60;;;15.70;;
57337;SDS011;43173;50.980;18.204;2023-03-04T07:05:38;18.80;;;10.10;;
57337;SDS011;43173;50.980;18.204;2023-03-04T07:08:03;32.10;;;16.40;;
57337;SDS011;43173;50.980;18.204;2023-03-04T07:10:31;23.80;;;12.50;;
57337;SDS011;43173;50.980;18.204;2023-03-04T07:12:57;34.90;;;16.80;;
57337;SDS011;43173;50.980;18.204;2023-03-04T07:15:22;35.20;;;18.60;;
57337;SDS011;43173;50.980;18.204;2023-03-04T07:17:48;17.10;;;9.50;;
57337;SDS011;43173;50.980;18.204;2023-03-04T07:20:14;32.00;;;14.30;;
57337;SDS011;43173;50.980;18.204;2023-03-04T07:22:40;27.70;;;13.10;;
57337;SDS011;43173;50.980;18.204;2023-03-04T07:25:05;22.80;;;11.30;;
57337;SDS011;43173;50.980;18.204;2023-03-04T07:27:31;24.20;;;11.60;;
57337;SDS011;43173;50.980;18.204;2023-03-04T07:29:57;32.20;;;16.10;;
57337;SDS011;43173;50.980;18.204;2023-03-04T07:32:23;32.80;;;16.90;;
57337;SDS011;43173;50.980;18.204;2023-03-04T07:34:49;23.10;;;12.00;;
57337;SDS011;43173;50.980;18.204;2023-03-04T07:37:15;19.60;;;10.30;;
57337;SDS011;43173;50.980;18.204;2023-03-04T07:39:41;21.10;;;10.20;;
57337;SDS011;43173;50.980;18.204;2023-03-04T07:42:06;26.80;;;13.70;;
57337;SDS011;43173;50.980;18.204;2023-03-04T07:44:32;33.00;;;15.00;;
57337;SDS011;43173;50.980;18.204;2023-03-04T07:46:58;31.70;;;14.60;;
57337;SDS011;43173;50.980;18.204;2023-03-04T07:49:23;27.40;;;12.80;;
57337;SDS011;43173;50.980;18.204;2023-03-04T07:51:49;31.20;;;13.80;;
57337;SDS011;43173;50.980;18.204;2023-03-04T07:54:15;27.60;;;13.70;;
57337;SDS011;43173;50.980;18.204;2023-03-04T07:56:41;25.30;;;12.80;;
57337;SDS011;43173;50.980;18.204;2023-03-04T07:59:07;22.90;;;10.00;;
57337;SDS011;43173;50.980;18.204;2023-03-04T08:01:34;32.30;;;17.60;;
57337;SDS011;43173;50.980;18.204;2023-03-04T08:04:01;30.40;;;14.80;;
57337;SDS011;43173;50.980;18.204;2023-03-04T08:06:28;23.90;;;13.20;;
57337;SDS011;43173;50.980;18.204;2023-03-04T08:08:55;20.00;;;10.50;;
57337;SDS011;43173;50.980;18.204;2023-03-04T08:11:31;26.50;;;13.60;;
57337;SDS011;43173;50.980;18.204;2023-03-04T08:13:58;19.40;;;10.30;;
57337;SDS011;43173;50.980;18.204;2023-03-04T08:16:24;20.50;;;10.90;;
57337;SDS011;43173;50.980;18.204;2023-03-04T08:18:51;25.10;;;12.20;;
57337;SDS011;43173;50.980;18.204;2023-03-04T08:21:19;27.00;;;14.30;;
57337;SDS011;43173;50.980;18.204;2023-03-04T08:23:46;28.60;;;14.30;;
57337;SDS011;43173;50.980;18.204;2023-03-04T08:26:20;30.10;;;14.00;;
57337;SDS011;43173;50.980;18.204;2023-03-04T08:28:51;20.40;;;11.30;;
57337;SDS011;43173;50.980;18.204;2023-03-04T08:31:17;17.60;;;9.60;;
57337;SDS011;43173;50.980;18.204;2023-03-04T08:33:44;19.80;;;10.90;;
57337;SDS011;43173;50.980;18.204;2023-03-04T08:36:11;26.60;;;12.90;;
57337;SDS011;43173;50.980;18.204;2023-03-04T08:38:38;22.80;;;9.50;;
57337;SDS011;43173;50.980;18.204;2023-03-04T08:43:43;16.80;;;8.20;;
57337;SDS011;43173;50.980;18.204;2023-03-04T08:46:09;26.40;;;12.50;;
57337;SDS011;43173;50.980;18.204;2023-03-04T08:48:35;25.30;;;12.30;;
57337;SDS011;43173;50.980;18.204;2023-03-04T08:51:06;21.50;;;10.40;;
57337;SDS011;43173;50.980;18.204;2023-03-04T08:53:33;24.60;;;13.40;;
57337;SDS011;43173;50.980;18.204;2023-03-04T08:55:58;19.80;;;11.40;;
57337;SDS011;43173;50.980;18.204;2023-03-04T08:58:24;19.10;;;10.90;;
57337;SDS011;43173;50.980;18.204;2023-03-04T09:00:50;19.20;;;10.40;;
57337;SDS011;43173;50.980;18.204;2023-03-04T09:03:16;23.00;;;11.70;;
57337;SDS011;43173;50.980;18.204;2023-03-04T09:05:46;25.80;;;10.40;;
57337;SDS011;43173;50.980;18.204;2023-03-04T09:08:13;21.60;;;11.10;;
57337;SDS011;43173;50.980;18.204;2023-03-04T09:10:39;17.90;;;9.20;;
57337;SDS011;43173;50.980;18.204;2023-03-04T09:13:05;18.00;;;8.50;;
57337;SDS011;43173;50.980;18.204;2023-03-04T09:15:31;22.10;;;11.00;;
57337;SDS011;43173;50.980;18.204;2023-03-04T09:18:00;19.50;;;9.10;;
57337;SDS011;43173;50.980;18.204;2023-03-04T09:20:27;18.20;;;8.60;;
57337;SDS011;43173;50.980;18.204;2023-03-04T09:22:54;20.70;;;9.50;;
57337;SDS011;43173;50.980;18.204;2023-03-04T09:25:20;24.30;;;12.60;;
57337;SDS011;43173;50.980;18.204;2023-03-04T09:27:46;17.20;;;8.40;;
57337;SDS011;43173;50.980;18.204;2023-03-04T09:30:12;24.50;;;12.10;;
57337;SDS011;43173;50.980;18.204;2023-03-04T09:32:38;15.50;;;8.00;;
57337;SDS011;43173;50.980;18.204;2023-03-04T09:35:05;17.50;;;8.30;;
57337;SDS011;43173;50.980;18.204;2023-03-04T09:37:31;23.00;;;10.90;;
57337;SDS011;43173;50.980;18.204;2023-03-04T09:39:56;18.30;;;10.00;;
57337;SDS011;43173;50.980;18.204;2023-03-04T09:45:17;13.90;;;7.20;;
57337;SDS011;43173;50.980;18.204;2023-03-04T09:47:45;26.50;;;14.30;;
57337;SDS011;43173;50.980;18.204;2023-03-04T09:50:12;20.60;;;9.20;;
57337;SDS011;43173;50.980;18.204;2023-03-04T10:00:57;29.30;;;14.90;;
57337;SDS011;43173;50.980;18.204;2023-03-04T10:03:27;21.40;;;11.50;;
57337;SDS011;43173;50.980;18.204;2023-03-04T10:06:08;15.10;;;7.80;;
57337;SDS011;43173;50.980;18.204;2023-03-04T10:19:56;23.30;;;11.50;;
57337;SDS011;43173;50.980;18.204;2023-03-04T10:22:27;25.60;;;14.60;;
57337;SDS011;43173;50.980;18.204;2023-03-04T10:24:58;24.50;;;12.10;;
57337;SDS011;43173;50.980;18.204;2023-03-04T10:27:35;28.60;;;12.50;;
57337;SDS011;43173;50.980;18.204;2023-03-04T10:30:00;19.40;;;11.20;;
57337;SDS011;43173;50.980;18.204;2023-03-04T10:32:26;21.10;;;10.50;;
57337;SDS011;43173;50.980;18.204;2023-03-04T10:34:52;30.60;;;18.10;;
57337;SDS011;43173;50.980;18.204;2023-03-04T10:37:18;26.20;;;13.40;;
57337;SDS011;43173;50.980;18.204;2023-03-04T10:39:44;24.80;;;13.50;;
57337;SDS011;43173;50.980;18.204;2023-03-04T10:44:43;16.80;;;10.60;;
57337;SDS011;43173;50.980;18.204;2023-03-04T10:47:16;37.00;;;15.80;;
57337;SDS011;43173;50.980;18.204;2023-03-04T10:49:52;32.10;;;15.20;;
57337;SDS011;43173;50.980;18.204;2023-03-04T10:54:48;21.90;;;11.30;;
57337;SDS011;43173;50.980;18.204;2023-03-04T10:57:19;16.80;;;9.60;;
57337;SDS011;43173;50.980;18.204;2023-03-04T11:02:44;32.10;;;13.80;;
57337;SDS011;43173;50.980;18.204;2023-03-04T11:05:16;22.90;;;11.10;;
57337;SDS011;43173;50.980;18.204;2023-03-04T11:07:50;20.60;;;11.30;;
57337;SDS011;43173;50.980;18.204;2023-03-04T11:13:01;24.10;;;12.80;;
57337;SDS011;43173;50.980;18.204;2023-03-04T11:15:45;12.90;;;7.00;;
57337;SDS011;43173;50.980;18.204;2023-03-04T11:21:19;19.50;;;9.00;;
57337;SDS011;43173;50.980;18.204;2023-03-04T11:26:31;18.10;;;9.40;;
57337;SDS011;43173;50.980;18.204;2023-03-04T11:29:05;16.30;;;9.10;;
57337;SDS011;43173;50.980;18.204;2023-03-04T11:39:49;18.00;;;8.50;;
57337;SDS011;43173;50.980;18.204;2023-03-04T11:42:27;20.70;;;10.30;;
57337;SDS011;43173;50.980;18.204;2023-03-04T11:44:54;17.40;;;10.40;;
57337;SDS011;43173;50.980;18.204;2023-03-04T11:50:13;14.70;;;6.60;;
57337;SDS011;43173;50.980;18.204;2023-03-04T11:53:02;22.50;;;11.20;;
57337;SDS011;43173;50.980;18.204;2023-03-04T11:55:55;20.60;;;10.50;;
57337;SDS011;43173;50.980;18.204;2023-03-04T12:01:09;10.40;;;6.70;;
57337;SDS011;43173;50.980;18.204;2023-03-04T12:24:19;12.60;;;7.20;;
57337;SDS011;43173;50.980;18.204;2023-03-04T12:27:00;19.30;;;12.10;;
57337;SDS011;43173;50.980;18.204;2023-03-04T12:34:59;16.10;;;10.00;;
57337;SDS011;43173;50.980;18.204;2023-03-04T12:40:17;12.40;;;8.40;;
57337;SDS011;43173;50.980;18.204;2023-03-04T12:53:32;11.20;;;6.70;;
57337;SDS011;43173;50.980;18.204;2023-03-04T12:56:06;9.20;;;5.20;;
57337;SDS011;43173;50.980;18.204;2023-03-04T12:58:33;10.90;;;5.70;;
57337;SDS011;43173;50.980;18.204;2023-03-04T13:03:45;14.80;;;7.60;;
57337;SDS011;43173;50.980;18.204;2023-03-04T13:06:30;8.10;;;4.30;;
57337;SDS011;43173;50.980;18.204;2023-03-04T13:09:10;12.20;;;6.50;;
57337;SDS011;43173;50.980;18.204;2023-03-04T13:11:49;10.30;;;5.70;;
57337;SDS011;43173;50.980;18.204;2023-03-04T13:16:47;14.80;;;8.00;;
57337;SDS011;43173;50.980;18.204;2023-03-04T13:25:00;12.10;;;7.10;;
57337;SDS011;43173;50.980;18.204;2023-03-04T13:27:43;6.80;;;4.60;;
57337;SDS011;43173;50.980;18.204;2023-03-04T13:38:34;10.10;;;5.50;;
57337;SDS011;43173;50.980;18.204;2023-03-04T13:49:20;13.90;;;8.60;;
57337;SDS011;43173;50.980;18.204;2023-03-04T13:51:47;10.20;;;5.60;;
57337;SDS011;43173;50.980;18.204;2023-03-04T13:59:53;13.20;;;7.30;;
57337;SDS011;43173;50.980;18.204;2023-03-04T14:02:21;13.20;;;8.30;;
57337;SDS011;43173;50.980;18.204;2023-03-04T14:15:28;11.50;;;6.70;;
57337;SDS011;43173;50.980;18.204;2023-03-04T14:17:55;10.00;;;6.30;;
57337;SDS011;43173;50.980;18.204;2023-03-04T14:20:33;12.20;;;7.70;;
57337;SDS011;43173;50.980;18.204;2023-03-04T14:23:03;10.80;;;5.10;;
57337;SDS011;43173;50.980;18.204;2023-03-04T14:25:32;10.00;;;4.90;;
57337;SDS011;43173;50.980;18.204;2023-03-04T14:30:43;8.70;;;4.50;;
57337;SDS011;43173;50.980;18.204;2023-03-04T14:33:23;7.20;;;4.30;;
57337;SDS011;43173;50.980;18.204;2023-03-04T14:35:51;9.10;;;5.80;;
57337;SDS011;43173;50.980;18.204;2023-03-04T14:38:23;6.80;;;3.90;;
57337;SDS011;43173;50.980;18.204;2023-03-04T14:40:53;11.70;;;6.20;;
57337;SDS011;43173;50.980;18.204;2023-03-04T14:43:22;9.60;;;4.90;;
57337;SDS011;43173;50.980;18.204;2023-03-04T14:45:52;12.30;;;4.90;;
57337;SDS011;43173;50.980;18.204;2023-03-04T14:48:20;13.00;;;7.00;;
57337;SDS011;43173;50.980;18.204;2023-03-04T14:53:18;13.30;;;5.80;;
57337;SDS011;43173;50.980;18.204;2023-03-04T14:58:30;10.30;;;5.60;;
57337;SDS011;43173;50.980;18.204;2023-03-04T15:03:41;13.70;;;7.90;;
57337;SDS011;43173;50.980;18.204;2023-03-04T15:08:56;7.10;;;4.50;;
57337;SDS011;43173;50.980;18.204;2023-03-04T15:11:43;11.40;;;7.30;;
57337;SDS011;43173;50.980;18.204;2023-03-04T15:25:15;9.70;;;5.70;;
57337;SDS011;43173;50.980;18.204;2023-03-04T15:27:43;12.10;;;7.00;;
57337;SDS011;43173;50.980;18.204;2023-03-04T15:30:17;10.00;;;6.50;;
57337;SDS011;43173;50.980;18.204;2023-03-04T15:32:45;15.50;;;9.40;;
57337;SDS011;43173;50.980;18.204;2023-03-04T15:35:12;18.50;;;11.70;;
57337;SDS011;43173;50.980;18.204;2023-03-04T15:37:39;18.60;;;10.80;;
57337;SDS011;43173;50.980;18.204;2023-03-04T15:40:11;20.10;;;12.40;;
57337;SDS011;43173;50.980;18.204;2023-03-04T15:42:41;10.50;;;6.60;;
57337;SDS011;43173;50.980;18.204;2023-03-04T15:45:15;18.40;;;11.70;;
57337;SDS011;43173;50.980;18.204;2023-03-04T15:47:49;11.00;;;7.50;;
57337;SDS011;43173;50.980;18.204;2023-03-04T15:50:16;11.40;;;6.70;;
57337;SDS011;43173;50.980;18.204;2023-03-04T15:52:42;9.80;;;4.70;;
57337;SDS011;43173;50.980;18.204;2023-03-04T15:55:12;10.50;;;5.50;;
57337;SDS011;43173;50.980;18.204;2023-03-04T15:57:42;12.80;;;5.80;;
57337;SDS011;43173;50.980;18.204;2023-03-04T16:00:10;15.30;;;8.50;;
57337;SDS011;43173;50.980;18.204;2023-03-04T16:02:37;13.90;;;7.50;;
57337;SDS011;43173;50.980;18.204;2023-03-04T16:05:04;12.00;;;6.20;;
57337;SDS011;43173;50.980;18.204;2023-03-04T16:07:31;15.30;;;8.60;;
57337;SDS011;43173;50.980;18.204;2023-03-04T16:10:01;14.40;;;8.20;;
57337;SDS011;43173;50.980;18.204;2023-03-04T16:12:30;14.30;;;8.50;;
57337;SDS011;43173;50.980;18.204;2023-03-04T16:14:56;11.80;;;7.80;;
57337;SDS011;43173;50.980;18.204;2023-03-04T16:17:22;12.60;;;7.00;;
57337;SDS011;43173;50.980;18.204;2023-03-04T16:19:49;10.70;;;5.60;;
57337;SDS011;43173;50.980;18.204;2023-03-04T16:22:15;13.60;;;7.30;;
57337;SDS011;43173;50.980;18.204;2023-03-04T16:24:42;10.60;;;5.60;;
57337;SDS011;43173;50.980;18.204;2023-03-04T16:27:09;9.20;;;5.50;;
57337;SDS011;43173;50.980;18.204;2023-03-04T16:29:36;10.60;;;5.60;;
57337;SDS011;43173;50.980;18.204;2023-03-04T16:32:01;14.20;;;8.60;;
57337;SDS011;43173;50.980;18.204;2023-03-04T16:34:27;10.00;;;5.30;;
57337;SDS011;43173;50.980;18.204;2023-03-04T16:36:53;12.70;;;7.70;;
57337;SDS011;43173;50.980;18.204;2023-03-04T16:39:20;17.30;;;11.30;;
57337;SDS011;43173;50.980;18.204;2023-03-04T16:41:47;17.80;;;10.10;;
57337;SDS011;43173;50.980;18.204;2023-03-04T16:44:13;17.50;;;11.10;;
57337;SDS011;43173;50.980;18.204;2023-03-04T16:46:39;18.40;;;10.30;;
57337;SDS011;43173;50.980;18.204;2023-03-04T16:49:05;8.30;;;4.90;;
57337;SDS011;43173;50.980;18.204;2023-03-04T16:51:33;8.60;;;5.10;;
57337;SDS011;43173;50.980;18.204;2023-03-04T16:54:04;10.20;;;6.80;;
57337;SDS011;43173;50.980;18.204;2023-03-04T16:56:31;14.50;;;7.50;;
57337;SDS011;43173;50.980;18.204;2023-03-04T16:58:56;13.80;;;8.80;;
57337;SDS011;43173;50.980;18.204;2023-03-04T17:01:25;8.30;;;5.50;;
57337;SDS011;43173;50.980;18.204;2023-03-04T17:03:53;13.10;;;7.00;;